Terminal Aerodrome Forecast
Issued by NWS

Home | Current Version | Previous Version | Text Only | Print | Product List | Glossary On
Versions: 1 2 3 4 5 6 7 8 9 10 11 12 13 14 15 16 17 18 19 20 21 22 23 24 25 26 27 28 29 30 31 32 33
000
FTUS41 KBTV 022300
TAFPBG
TAF
KPBG 022323Z 0300/0324 28007KT 6SM RA BR VCTS OVC045CB
     FM030200 28007KT 6SM RA BR SCT025 OVC040
     FM030500 24004KT P6SM BKN060
     FM031000 27008KT P6SM SCT060
     FM031600 32009G16KT P6SM SCT060=

USA.gov is the U.S. government's official web portal to all federal, state and local government web resources and services.